WXM80 ListenWXM80 Stop

You find our weather info also at:

UK Metoffice

WeatherCloud

Weather Underground

Northeastern Weather Network

AWEKAS

Citizen Weather Observer Program (CWOP)

HAMweather, WeatherForYou, PWS Weather


Weather Underground History page Text

Daily Summary for December 20, 2017 Units:  Metric    English   Both
« Previous Day
Next Day »
Daily Weekly Monthly Yearly Custom
  High: Low: Average:
Temperature: 10.7 °C 1.8 °C 6.2 °C
Dew Point: 4.3 °C -5.6 °C -2.1 °C
Humidity: 68 % 47 % 56 %
Wind Speed: 19.3 km/h 0 km/h 8.7 km/h
Wind Gust: 33.8 km/h - -
Wind:- - WNW
Pressure: 1016.8 hPa 1005 hPa -
Precipitation: 0 mm    
Historical Graphs
 
 
Tabular Data for December 20, 2017
Time Temperature Dew Point Pressure Wind Wind Speed Wind Gust Humidity Rainfall Rate (Hourly)
00:00 9.8 °C 4 °C 1005.3 hPa WSW 9 km/h 14.5 km/h 67 % 0 mm
00:04 9.8 °C 3.9 °C 1005.3 hPa WSW 5 km/h 11.1 km/h 67 % 0 mm
00:10 9.8 °C 3.9 °C 1005.3 hPa SW 11.4 km/h 16.1 km/h 67 % 0 mm
00:11 9.8 °C 3.8 °C 1005.3 hPa WSW 7.1 km/h 13 km/h 66 % 0 mm
00:15 9.8 °C 3.8 °C 1005.3 hPa SW 2.4 km/h 9.3 km/h 66 % 0 mm
00:20 9.8 °C 3.8 °C 1005 hPa SW 3.5 km/h 14.8 km/h 66 % 0 mm
00:21 9.8 °C 3.8 °C 1005 hPa WSW 6.9 km/h 11.1 km/h 66 % 0 mm
00:26 9.8 °C 3.8 °C 1005.3 hPa WSW 6 km/h 9.3 km/h 66 % 0 mm
00:28 9.9 °C 3.8 °C 1005 hPa WSW 3.7 km/h 9.7 km/h 66 % 0 mm
00:29 9.9 °C 3.8 °C 1005 hPa WSW 4.5 km/h 9.7 km/h 66 % 0 mm
00:34 9.8 °C 3.8 °C 1005 hPa WSW 2.3 km/h 11.3 km/h 66 % 0 mm
00:35 9.8 °C 3.8 °C 1005 hPa SSW 7.9 km/h 11.1 km/h 66 % 0 mm
00:36 9.8 °C 3.8 °C 1005 hPa SSW 3.7 km/h 14.8 km/h 66 % 0 mm
00:41 9.8 °C 3.8 °C 1005.3 hPa South 6.6 km/h 11.3 km/h 66 % 0 mm
00:44 9.8 °C 3.7 °C 1005.3 hPa SW 5.1 km/h 11.3 km/h 66 % 0 mm
00:49 9.8 °C 3.7 °C 1005.3 hPa SSW 3.7 km/h 9.3 km/h 66 % 0 mm
00:53 9.7 °C 3.7 °C 1005 hPa SW 4.8 km/h 7.4 km/h 66 % 0 mm
00:58 9.7 °C 3.7 °C 1005 hPa SW 7.6 km/h 11.3 km/h 66 % 0 mm
01:00 9.7 °C 3.7 °C 1005 hPa South 6.8 km/h 16.7 km/h 66 % 0 mm
01:02 9.7 °C 3.7 °C 1005.3 hPa SSW 5.1 km/h 9.3 km/h 66 % 0 mm
01:07 9.7 °C 3.7 °C 1005.3 hPa West 5.6 km/h 16.7 km/h 66 % 0 mm
01:10 9.8 °C 3.7 °C 1005 hPa WSW 13 km/h 20.4 km/h 66 % 0 mm
01:16 9.9 °C 3.6 °C 1005.3 hPa South 7.4 km/h 14.8 km/h 65 % 0 mm
01:17 9.9 °C 3.6 °C 1005.3 hPa SSW 4.8 km/h 16.7 km/h 65 % 0 mm
01:22 10 °C 3.7 °C 1005.3 hPa WSW 9 km/h 20.4 km/h 65 % 0 mm
01:23 10 °C 3.7 °C 1005.3 hPa SW 6.3 km/h 17.7 km/h 65 % 0 mm
01:28 10.1 °C 3.8 °C 1005.3 hPa South 4 km/h 9.7 km/h 65 % 0 mm
01:33 10.2 °C 3.7 °C 1005.3 hPa WSW 6.6 km/h 11.3 km/h 64 % 0 mm
01:35 10.2 °C 3.7 °C 1005.3 hPa West 6.1 km/h 11.1 km/h 64 % 0 mm
01:40 10.2 °C 3.7 °C 1005.3 hPa WSW 13.2 km/h 18.5 km/h 64 % 0 mm
01:41 10.2 °C 3.7 °C 1005.6 hPa WSW 11.3 km/h 11.3 km/h 64 % 0 mm
01:46 10.3 °C 3.8 °C 1005.6 hPa WSW 12.9 km/h 24.1 km/h 64 % 0 mm
01:47 10.3 °C 3.6 °C 1005.6 hPa West 10 km/h 14.8 km/h 63 % 0 mm
01:52 10.4 °C 3.9 °C 1005.6 hPa WSW 4 km/h 18.5 km/h 64 % 0 mm
01:55 10.5 °C 3.9 °C 1006 hPa WSW 7.4 km/h 25.9 km/h 64 % 0 mm
01:57 10.6 °C 3.8 °C 1006 hPa WSW 11.4 km/h 24.1 km/h 63 % 0 mm
02:02 10.6 °C 3.8 °C 1006 hPa West 10.6 km/h 22.2 km/h 63 % 0 mm
02:05 10.7 °C 3.9 °C 1006 hPa WNW 6.9 km/h 18.5 km/h 63 % 0 mm
02:10 10.7 °C 3.9 °C 1006 hPa WSW 10.8 km/h 16.7 km/h 63 % 0 mm
02:11 10.7 °C 3.9 °C 1006 hPa SW 9 km/h 16.7 km/h 63 % 0 mm
02:14 10.7 °C 3.9 °C 1006.3 hPa WNW 4.2 km/h 16.7 km/h 63 % 0 mm
02:16 10.7 °C 3.9 °C 1006.3 hPa West 7.9 km/h 20.4 km/h 63 % 0 mm
02:19 10.7 °C 4.3 °C 1006.3 hPa West 13.4 km/h 24.1 km/h 65 % 0 mm
02:25 10.6 °C 4.1 °C 1006.3 hPa NW 14.6 km/h 27.8 km/h 64 % 0 mm
02:30 10.6 °C 4 °C 1006.3 hPa WNW 4.8 km/h 13 km/h 64 % 0 mm
02:31 10.6 °C 4 °C 1006.7 hPa West 6.3 km/h 14.8 km/h 64 % 0 mm
02:36 10.5 °C 3.9 °C 1006.7 hPa WNW 3.4 km/h 9.3 km/h 64 % 0 mm
02:42 10.4 °C 4.2 °C 1006.7 hPa WNW 6.9 km/h 9.7 km/h 65 % 0 mm
02:47 10.3 °C 3.8 °C 1006.7 hPa WNW 4.7 km/h 20.4 km/h 64 % 0 mm
02:51 10.3 °C 4 °C 1007 hPa WNW 7.4 km/h 16.7 km/h 65 % 0 mm
02:57 10.2 °C 3.9 °C 1007 hPa WNW 7.2 km/h 13 km/h 65 % 0 mm
02:59 10.1 °C 3.8 °C 1007 hPa WSW 3.4 km/h 9.3 km/h 65 % 0 mm
03:00 10.1 °C 3.8 °C 1007 hPa WNW 11.1 km/h 19.3 km/h 65 % 0 mm
03:05 10 °C 3.7 °C 1007 hPa West 2.7 km/h 11.1 km/h 65 % 0 mm
03:06 9.9 °C 3.7 °C 1007 hPa West 2.3 km/h 7.4 km/h 65 % 0 mm
03:11 9.8 °C 3.8 °C 1007 hPa West 9 km/h 16.7 km/h 66 % 0 mm
03:12 9.8 °C 3.7 °C 1007 hPa WNW 6.4 km/h 14.8 km/h 66 % 0 mm
03:16 9.7 °C 3.6 °C 1007 hPa NNW 7.2 km/h 13 km/h 66 % 0 mm
03:21 9.6 °C 3.7 °C 1007 hPa NW 5.3 km/h 9.7 km/h 67 % 0 mm
03:25 9.4 °C 3.6 °C 1007 hPa WSW 2.6 km/h 5.6 km/h 67 % 0 mm
03:26 9.4 °C 3.8 °C 1007 hPa West 2.1 km/h 8 km/h 68 % 0 mm
03:31 9.3 °C 3.7 °C 1007 hPa Calm   5.6 km/h 68 % 0 mm
03:36 9.2 °C 3.6 °C 1007 hPa WNW 3.2 km/h 17.7 km/h 68 % 0 mm
03:41 8.9 °C 2.9 °C 1007.3 hPa WNW 2.7 km/h 9.3 km/h 66 % 0 mm
03:47 8.8 °C 2.3 °C 1007.3 hPa WNW 6.4 km/h 11.1 km/h 64 % 0 mm
03:48 8.8 °C 2.3 °C 1007.3 hPa West 4.8 km/h 14.5 km/h 64 % 0 mm
03:50 8.7 °C 2.3 °C 1007.3 hPa NW 1.1 km/h 14.8 km/h 64 % 0 mm
03:54 8.7 °C 1.8 °C 1007.3 hPa WSW 10.8 km/h 24.1 km/h 62 % 0 mm
03:55 8.6 °C 1.7 °C 1007.3 hPa WNW 3.4 km/h 24.1 km/h 62 % 0 mm
04:00 8.6 °C 1 °C 1007.3 hPa WNW 6.3 km/h 13 km/h 59 % 0 mm
04:01 8.6 °C 1 °C 1007.3 hPa NW 6.6 km/h 14.8 km/h 59 % 0 mm
04:06 8.6 °C 0.5 °C 1007.3 hPa West 9.7 km/h 24.1 km/h 57 % 0 mm
04:09 8.6 °C 0.1 °C 1007.7 hPa NW 9.7 km/h 25.7 km/h 55 % 0 mm
04:14 8.7 °C -0.1 °C 1007.7 hPa West 14 km/h 27.8 km/h 54 % 0 mm
04:16 8.7 °C -0.1 °C 1007.7 hPa WNW 6.8 km/h 18.5 km/h 54 % 0 mm
04:21 8.8 °C 0.2 °C 1007.7 hPa WSW 9.5 km/h 18.5 km/h 55 % 0 mm
04:26 8.8 °C -0.1 °C 1007.7 hPa West 6.6 km/h 18.5 km/h 54 % 0 mm
04:29 8.8 °C 0.2 °C 1007.7 hPa WSW 3.7 km/h 11.1 km/h 55 % 0 mm
04:34 8.7 °C 0.4 °C 1007.7 hPa NW 9.5 km/h 14.8 km/h 56 % 0 mm
04:39 8.7 °C 0.1 °C 1007.7 hPa SW 4 km/h 11.1 km/h 55 % 0 mm
04:44 8.7 °C 0.1 °C 1007.7 hPa WNW 13.4 km/h 18.5 km/h 55 % 0 mm
04:45 8.7 °C 0.1 °C 1008 hPa WSW 8 km/h 22.2 km/h 55 % 0 mm
04:49 8.7 °C 0.1 °C 1008 hPa WNW 6.8 km/h 16.7 km/h 55 % 0 mm
04:54 8.6 °C 0.1 °C 1008 hPa NW 11.7 km/h 25.9 km/h 55 % 0 mm
04:56 8.6 °C 0.1 °C 1008 hPa NNW 7.9 km/h 13 km/h 55 % 0 mm
05:01 8.6 °C -0.2 °C 1008 hPa WNW 7.6 km/h 18.5 km/h 54 % 0 mm
05:02 8.5 °C -0.3 °C 1008 hPa WNW 2.1 km/h 9.3 km/h 54 % 0 mm
05:08 8.4 °C -0.1 °C 1008 hPa NW 9.5 km/h 16.7 km/h 55 % 0 mm
05:12 8.4 °C -0.2 °C 1008 hPa WNW 9 km/h 17.7 km/h 55 % 0 mm
05:14 8.4 °C -0.2 °C 1008 hPa West 8.7 km/h 12.9 km/h 55 % 0 mm
05:19 8.3 °C 0.1 °C 1008 hPa WNW 3.4 km/h 11.1 km/h 56 % 0 mm
05:22 8.3 °C 0 °C 1008.4 hPa WNW 6.8 km/h 11.3 km/h 56 % 0 mm
05:26 8.2 °C 0.4 °C 1008.4 hPa WNW 3.5 km/h 5.6 km/h 58 % 0 mm
05:28 8.2 °C 0.6 °C 1008.4 hPa NW 12.4 km/h 27.8 km/h 59 % 0 mm
05:32 8.1 °C 0.8 °C 1008.4 hPa WNW 10.8 km/h 20.4 km/h 60 % 0 mm
05:34 8.1 °C 0.5 °C 1008.4 hPa NW 4.8 km/h 11.1 km/h 59 % 0 mm
05:39 8 °C 0.2 °C 1008.7 hPa NW 7.6 km/h 20.4 km/h 58 % 0 mm
05:44 7.9 °C 0.2 °C 1008.7 hPa NW 15.1 km/h 24.1 km/h 58 % 0 mm
05:46 7.9 °C -0.1 °C 1008.7 hPa WNW 9.7 km/h 29.6 km/h 57 % 0 mm
05:51 7.8 °C -0.7 °C 1009 hPa NW 10.3 km/h 18.5 km/h 55 % 0 mm
05:53 7.8 °C -0.7 °C 1009 hPa WNW 9.5 km/h 20.4 km/h 55 % 0 mm
05:54 7.8 °C -0.4 °C 1009 hPa NW 6.6 km/h 14.8 km/h 56 % 0 mm
06:00 7.7 °C 0.4 °C 1009 hPa NNW 6 km/h 13 km/h 60 % 0 mm
06:03 7.7 °C 0.6 °C 1009 hPa NW 10.3 km/h 20.4 km/h 61 % 0 mm
06:08 7.6 °C 0.7 °C 1009.4 hPa NW 6.6 km/h 16.7 km/h 62 % 0 mm
06:13 7.4 °C 0.4 °C 1009.4 hPa NW 13 km/h 20.4 km/h 61 % 0 mm
06:18 7.3 °C 0.4 °C 1009.4 hPa NW 8 km/h 14.8 km/h 62 % 0 mm
06:20 7.2 °C 0.4 °C 1009.4 hPa NW 8 km/h 13 km/h 62 % 0 mm
06:25 7.2 °C 0.2 °C 1009.4 hPa WNW 8.2 km/h 18.5 km/h 61 % 0 mm
06:26 7.1 °C 0.1 °C 1009.7 hPa NW 9.7 km/h 20.9 km/h 61 % 0 mm
06:31 7.1 °C 0.1 °C 1009.7 hPa NW 4.8 km/h 20.9 km/h 61 % 0 mm
06:36 6.9 °C 0.2 °C 1009.7 hPa WNW 8.9 km/h 18.5 km/h 62 % 0 mm
06:41 6.9 °C 0.1 °C 1009.7 hPa WNW 10.1 km/h 14.8 km/h 62 % 0 mm
06:43 6.8 °C 0.1 °C 1010 hPa NW 5.8 km/h 18.5 km/h 62 % 0 mm
06:46 6.8 °C 0 °C 1010 hPa NW 9.7 km/h 19.3 km/h 62 % 0 mm
06:49 6.7 °C -0.3 °C 1010 hPa NW 5.6 km/h 14.8 km/h 61 % 0 mm
06:54 6.7 °C -0.3 °C 1010 hPa West 3.4 km/h 11.1 km/h 61 % 0 mm
06:55 6.7 °C -0.3 °C 1010 hPa NNW 9.8 km/h 13 km/h 61 % 0 mm
06:59 6.6 °C -0.9 °C 1010.4 hPa NW 7.9 km/h 18.5 km/h 59 % 0 mm
07:03 6.5 °C -1.4 °C 1010.4 hPa West 6.4 km/h 22.2 km/h 57 % 0 mm
07:08 6.4 °C -1.9 °C 1010.4 hPa WNW 12.2 km/h 22.2 km/h 55 % 0 mm
07:13 6.3 °C -2.3 °C 1010.4 hPa NW 13.8 km/h 25.7 km/h 54 % 0 mm
07:14 6.3 °C -2.1 °C 1010.4 hPa West 10.1 km/h 19.3 km/h 55 % 0 mm
07:16 6.3 °C -2.3 °C 1010.4 hPa WNW 13.8 km/h 16.7 km/h 54 % 0 mm
07:21 6.3 °C -2.3 °C 1010.4 hPa NW 10.3 km/h 18.5 km/h 54 % 0 mm
07:24 6.3 °C -2.1 °C 1010.7 hPa WSW 10.9 km/h 18.5 km/h 55 % 0 mm
07:29 6.2 °C -2.4 °C 1010.7 hPa WNW 3.5 km/h 18.5 km/h 54 % 0 mm
07:34 6.2 °C -2.2 °C 1010.7 hPa WNW 10.1 km/h 17.7 km/h 55 % 0 mm
07:35 6.2 °C -2.4 °C 1010.7 hPa WNW 10.8 km/h 18.5 km/h 54 % 0 mm
07:40 6.1 °C -2.5 °C 1011.1 hPa WNW 8 km/h 11.3 km/h 54 % 0 mm
07:41 6.1 °C -2.5 °C 1011.1 hPa WNW 9.2 km/h 12.9 km/h 54 % 0 mm
07:45 6.1 °C -2.6 °C 1011.1 hPa WNW 6.6 km/h 14.8 km/h 54 % 0 mm
07:50 6 °C -2.6 °C 1011.1 hPa WSW 6.9 km/h 14.8 km/h 54 % 0 mm
07:53 5.9 °C -2.9 °C 1011.1 hPa West 7.6 km/h 20.4 km/h 53 % 0 mm
07:57 5.9 °C -3.2 °C 1010.7 hPa WSW 9.5 km/h 20.9 km/h 52 % 0 mm
08:00 5.9 °C -3.2 °C 1011.1 hPa NW 12.9 km/h 27.8 km/h 52 % 0 mm
08:05 5.8 °C -3.6 °C 1011.1 hPa SW 13.2 km/h 20.4 km/h 51 % 0 mm
08:06 5.9 °C -3.5 °C 1011.1 hPa West 10.9 km/h 24.1 km/h 51 % 0 mm
08:08 5.8 °C -3.6 °C 1011.1 hPa WSW 7.9 km/h 16.7 km/h 51 % 0 mm
08:13 5.8 °C -3.3 °C 1011.1 hPa WSW 13.4 km/h 24.1 km/h 52 % 0 mm
08:14 5.8 °C -3.3 °C 1011.1 hPa WNW 12.6 km/h 22.2 km/h 52 % 0 mm
08:17 5.8 °C -3.3 °C 1011.1 hPa WNW 13 km/h 18.5 km/h 52 % 0 mm
08:20 5.8 °C -3.6 °C 1011.1 hPa West 9.5 km/h 25.9 km/h 51 % 0 mm
08:25 5.8 °C -3.6 °C 1011.1 hPa WSW 5.6 km/h 18.5 km/h 51 % 0 mm
08:26 5.8 °C -3.8 °C 1011.1 hPa WNW 8.9 km/h 24.1 km/h 50 % 0 mm
08:31 5.8 °C -3.8 °C 1011.4 hPa SW 13.4 km/h 29 km/h 50 % 0 mm
08:32 5.8 °C -4.1 °C 1011.1 hPa West 12.9 km/h 29.6 km/h 49 % 0 mm
08:37 5.9 °C -3.8 °C 1011.4 hPa West 2.9 km/h 18.5 km/h 50 % 0 mm
08:40 5.9 °C -3.8 °C 1011.4 hPa West 8.4 km/h 18.5 km/h 50 % 0 mm
08:45 5.9 °C -3.8 °C 1011.7 hPa West 5.8 km/h 7.4 km/h 50 % 0 mm
08:50 5.9 °C -3.7 °C 1011.7 hPa West 11.6 km/h 18.5 km/h 50 % 0 mm
08:55 6 °C -3.7 °C 1012.1 hPa WSW 4.3 km/h 14.8 km/h 50 % 0 mm
08:57 6 °C -3.7 °C 1012.1 hPa WSW 11.3 km/h 22.2 km/h 50 % 0 mm
09:02 6.1 °C -3.9 °C 1011.7 hPa West 14 km/h 22.2 km/h 49 % 0 mm
09:03 6.1 °C -3.9 °C 1012.1 hPa West 9.2 km/h 22.2 km/h 49 % 0 mm
09:05 6.1 °C -3.8 °C 1012.1 hPa WNW 8.4 km/h 24.1 km/h 49 % 0 mm
09:10 6.1 °C -4.1 °C 1012.1 hPa WNW 10.3 km/h 14.8 km/h 48 % 0 mm
09:11 6.1 °C -4.1 °C 1012.1 hPa WSW 16.4 km/h 29 km/h 48 % 0 mm
09:16 6.2 °C -4.1 °C 1011.7 hPa West 10.8 km/h 16.7 km/h 48 % 0 mm
09:17 6.2 °C -3.8 °C 1011.7 hPa West 13 km/h 25.7 km/h 49 % 0 mm
09:18 6.2 °C -4.1 °C 1012.1 hPa WSW 10 km/h 25.9 km/h 48 % 0 mm
09:22 6.2 °C -3.8 °C 1012.1 hPa West 14.3 km/h 22.2 km/h 49 % 0 mm
09:27 6.2 °C -4.1 °C 1012.1 hPa WNW 12.2 km/h 20.4 km/h 48 % 0 mm
09:29 6.2 °C -4.1 °C 1012.1 hPa SW 15.9 km/h 22.5 km/h 48 % 0 mm
09:34 6.3 °C -3.7 °C 1012.1 hPa West 9 km/h 16.7 km/h 49 % 0 mm
09:35 6.3 °C -3.7 °C 1012.1 hPa WNW 9.5 km/h 16.7 km/h 49 % 0 mm
09:40 6.3 °C -3.6 °C 1012.4 hPa NW 13.8 km/h 20.4 km/h 49 % 0 mm
09:41 6.3 °C -3.6 °C 1012.4 hPa West 11.3 km/h 22.5 km/h 49 % 0 mm
09:46 6.4 °C -3.8 °C 1012.4 hPa SW 14.8 km/h 29.6 km/h 48 % 0 mm
09:49 6.4 °C -3.8 °C 1012.4 hPa WNW 10.9 km/h 18.5 km/h 48 % 0 mm
09:54 6.5 °C -3.7 °C 1012.4 hPa West 14.6 km/h 18.5 km/h 48 % 0 mm
09:58 6.6 °C -3.7 °C 1012.4 hPa West 10.6 km/h 13 km/h 48 % 0 mm
10:03 6.6 °C -3.7 °C 1012.8 hPa West 11.4 km/h 20.4 km/h 48 % 0 mm
10:05 6.6 °C -3.6 °C 1012.8 hPa WSW 6 km/h 11.1 km/h 48 % 0 mm
10:08 6.6 °C -3.3 °C 1012.4 hPa West 9.7 km/h 18.5 km/h 49 % 0 mm
10:13 6.7 °C -3.6 °C 1012.4 hPa West 9.7 km/h 18.5 km/h 48 % 0 mm
10:16 6.7 °C -3.3 °C 1012.4 hPa WNW 3.7 km/h 14.8 km/h 49 % 0 mm
10:17 6.7 °C -3.3 °C 1012.4 hPa WNW 5 km/h 9.7 km/h 49 % 0 mm
10:22 6.7 °C -3.3 °C 1012.4 hPa WNW 6.4 km/h 13 km/h 49 % 0 mm
10:27 6.7 °C -3.3 °C 1012.4 hPa WSW 10.6 km/h 16.7 km/h 49 % 0 mm
10:29 6.8 °C -3.2 °C 1012.8 hPa West 6.8 km/h 14.8 km/h 49 % 0 mm
10:34 6.8 °C -3.2 °C 1012.4 hPa SW 5.3 km/h 13 km/h 49 % 0 mm
10:36 6.8 °C -3.2 °C 1012.4 hPa West 12.9 km/h 19.3 km/h 49 % 0 mm
10:42 6.8 °C -2.9 °C 1012.4 hPa WSW 10.5 km/h 22.5 km/h 50 % 0 mm
10:47 6.8 °C -3.2 °C 1012.8 hPa WNW 8.2 km/h 20.4 km/h 49 % 0 mm
10:48 6.8 °C -3.2 °C 1012.4 hPa West 8.4 km/h 20.4 km/h 49 % 0 mm
10:53 6.8 °C -3.2 °C 1012.4 hPa WSW 12.9 km/h 25.9 km/h 49 % 0 mm
10:54 6.8 °C -3.2 °C 1012.4 hPa WNW 11.4 km/h 18.5 km/h 49 % 0 mm
10:58 6.8 °C -3.2 °C 1012.4 hPa WSW 9 km/h 24.1 km/h 49 % 0 mm
11:03 6.8 °C -3.2 °C 1012.4 hPa SW 9.3 km/h 16.7 km/h 49 % 0 mm
11:05 6.9 °C -3.1 °C 1012.4 hPa SW 8 km/h 16.7 km/h 49 % 0 mm
11:08 6.9 °C -3.1 °C 1012.4 hPa WNW 11.7 km/h 24.1 km/h 49 % 0 mm
11:13 6.9 °C -3.1 °C 1012.1 hPa West 10.5 km/h 22.5 km/h 49 % 0 mm
11:17 6.9 °C -2.8 °C 1012.1 hPa West 11.9 km/h 20.4 km/h 50 % 0 mm
11:22 6.9 °C -3.1 °C 1011.7 hPa WNW 13 km/h 27.4 km/h 49 % 0 mm
11:24 6.9 °C -3.3 °C 1011.7 hPa West 15.3 km/h 27.8 km/h 48 % 0 mm
11:29 7 °C -2.4 °C 1011.7 hPa NW 9.2 km/h 25.9 km/h 51 % 0 mm
11:30 7 °C -2.2 °C 1011.7 hPa NW 8.7 km/h 25.9 km/h 52 % 0 mm
11:35 7 °C -2.4 °C 1011.7 hPa NNW 12.1 km/h 25.9 km/h 51 % 0 mm
11:37 7 °C -2.4 °C 1011.7 hPa NW 14.5 km/h 20.4 km/h 51 % 0 mm
11:42 6.9 °C -2.5 °C 1011.7 hPa WNW 11.9 km/h 25.9 km/h 51 % 0 mm
11:44 6.9 °C -2.6 °C 1011.7 hPa West 7.2 km/h 18.5 km/h 51 % 0 mm
11:49 6.8 °C -2.6 °C 1011.7 hPa WNW 6.4 km/h 18.5 km/h 51 % 0 mm
11:50 6.8 °C -2.9 °C 1011.7 hPa West 13.8 km/h 33.3 km/h 50 % 0 mm
11:55 6.7 °C -3.3 °C 1011.7 hPa NW 13.4 km/h 29.6 km/h 49 % 0 mm
11:56 6.8 °C -3.2 °C 1011.4 hPa WNW 14.5 km/h 29 km/h 49 % 0 mm
11:59 6.7 °C -3.6 °C 1011.7 hPa WSW 13.4 km/h 20.4 km/h 48 % 0 mm
12:04 6.6 °C -3.3 °C 1011.7 hPa WNW 14.2 km/h 19.3 km/h 49 % 0 mm
12:08 6.6 °C -3.4 °C 1011.7 hPa West 8 km/h 20.4 km/h 49 % 0 mm
12:09 6.6 °C -3.4 °C 1011.7 hPa WNW 9 km/h 20.4 km/h 49 % 0 mm
12:14 6.4 °C -3.5 °C 1011.4 hPa WSW 8.2 km/h 22.2 km/h 49 % 0 mm
12:20 6.3 °C -3.6 °C 1011.4 hPa WNW 11.1 km/h 22.2 km/h 49 % 0 mm
12:25 6.3 °C -3.9 °C 1011.4 hPa NW 14.6 km/h 25.9 km/h 48 % 0 mm
12:30 6.3 °C -3.9 °C 1011.4 hPa WNW 11.7 km/h 24.1 km/h 48 % 0 mm
12:31 6.3 °C -3.6 °C 1011.4 hPa WNW 10.3 km/h 24.1 km/h 49 % 0 mm
12:33 6.3 °C -3.7 °C 1011.4 hPa NW 6.4 km/h 13 km/h 49 % 0 mm
12:37 6.3 °C -3.7 °C 1011.4 hPa NW 13.2 km/h 20.4 km/h 49 % 0 mm
12:42 6.3 °C -3.7 °C 1011.4 hPa WNW 15.1 km/h 24.1 km/h 49 % 0 mm
12:44 6.2 °C -3.7 °C 1011.4 hPa West 12.4 km/h 27.8 km/h 49 % 0 mm
12:49 6.2 °C -4.1 °C 1011.4 hPa WNW 9 km/h 18.5 km/h 48 % 0 mm
12:52 6.2 °C -3.8 °C 1011.4 hPa WNW 17.2 km/h 22.2 km/h 49 % 0 mm
12:57 6.2 °C -3.8 °C 1011.4 hPa NW 6.9 km/h 18.5 km/h 49 % 0 mm
13:01 6.2 °C -3.4 °C 1011.4 hPa NNW 12.1 km/h 20.9 km/h 50 % 0 mm
13:06 6.3 °C -3.9 °C 1011.4 hPa WNW 14.3 km/h 27.8 km/h 48 % 0 mm
13:09 6.3 °C -3.7 °C 1011.4 hPa WNW 13.7 km/h 22.2 km/h 49 % 0 mm
13:14 6.3 °C -3.9 °C 1011.4 hPa West 12.7 km/h 24.1 km/h 48 % 0 mm
13:16 6.3 °C -3.9 °C 1011.4 hPa WNW 12.9 km/h 24.1 km/h 48 % 0 mm
13:21 6.3 °C -3.9 °C 1011.4 hPa WNW 12.9 km/h 27.4 km/h 48 % 0 mm
13:26 6.3 °C -3.7 °C 1011.4 hPa West 13.4 km/h 33.8 km/h 49 % 0 mm
13:27 6.3 °C -3.9 °C 1011.7 hPa NNW 16.9 km/h 33.3 km/h 48 % 0 mm
13:28 6.3 °C -3.9 °C 1011.4 hPa WNW 7.6 km/h 18.5 km/h 48 % 0 mm
13:32 6.2 °C -3.7 °C 1011.4 hPa NW 7.9 km/h 16.7 km/h 49 % 0 mm
13:37 6.2 °C -4.1 °C 1011.4 hPa WNW 10.8 km/h 14.8 km/h 48 % 0 mm
13:43 6.1 °C -4.1 °C 1011.4 hPa WNW 9.5 km/h 18.5 km/h 48 % 0 mm
13:44 6.1 °C -4.4 °C 1011.4 hPa West 10 km/h 20.4 km/h 47 % 0 mm
13:49 6.1 °C -4.4 °C 1011.4 hPa WNW 10.9 km/h 24.1 km/h 47 % 0 mm
13:50 6 °C -4.5 °C 1011.4 hPa West 8.2 km/h 14.8 km/h 47 % 0 mm
13:56 6 °C -4.5 °C 1011.4 hPa NW 15.1 km/h 18.5 km/h 47 % 0 mm
14:01 5.9 °C -4.2 °C 1011.4 hPa West 8.9 km/h 22.2 km/h 48 % 0 mm
14:06 5.9 °C -4 °C 1011.4 hPa WNW 8.5 km/h 18.5 km/h 49 % 0 mm
14:07 5.9 °C -4.3 °C 1011.4 hPa NW 9.3 km/h 24.1 km/h 48 % 0 mm
14:12 5.8 °C -4.3 °C 1011.7 hPa West 12.6 km/h 20.4 km/h 48 % 0 mm
14:17 5.8 °C -4.1 °C 1011.7 hPa NW 12.7 km/h 22.5 km/h 49 % 0 mm
14:18 5.8 °C -4.4 °C 1011.7 hPa NW 9 km/h 22.2 km/h 48 % 0 mm
14:23 5.7 °C -4.4 °C 1011.7 hPa WNW 8.5 km/h 20.4 km/h 48 % 0 mm
14:24 5.7 °C -4.4 °C 1011.7 hPa West 7.2 km/h 14.8 km/h 48 % 0 mm
14:25 5.7 °C -4.4 °C 1011.7 hPa NW 4.8 km/h 14.8 km/h 48 % 0 mm
14:30 5.7 °C -4.2 °C 1011.7 hPa West 6 km/h 16.7 km/h 49 % 0 mm
14:35 5.6 °C -3.7 °C 1011.7 hPa NW 9.2 km/h 20.9 km/h 51 % 0 mm
14:41 5.6 °C -4.1 °C 1011.7 hPa WNW 9.7 km/h 14.5 km/h 50 % 0 mm
14:46 5.5 °C -4.1 °C 1011.7 hPa WNW 3.2 km/h 19.3 km/h 50 % 0 mm
14:51 5.5 °C -4.4 °C 1011.7 hPa West 11.3 km/h 13 km/h 49 % 0 mm
14:52 5.4 °C -4.4 °C 1011.7 hPa NW 7.4 km/h 22.2 km/h 49 % 0 mm
14:57 5.5 °C -4.4 °C 1011.7 hPa West 8.7 km/h 14.8 km/h 49 % 0 mm
15:02 5.5 °C -4.4 °C 1012.1 hPa WNW 6.3 km/h 11.1 km/h 49 % 0 mm
15:04 5.5 °C -4.4 °C 1012.1 hPa WNW 0.8 km/h 11.1 km/h 49 % 0 mm
15:08 5.6 °C -4.3 °C 1012.1 hPa WSW 7.6 km/h 13 km/h 49 % 0 mm
15:13 5.6 °C -4.6 °C 1012.1 hPa WNW 5.5 km/h 13 km/h 48 % 0 mm
15:18 5.7 °C -4.5 °C 1012.1 hPa West 2.9 km/h 13 km/h 48 % 0 mm
15:23 5.7 °C -4.5 °C 1012.1 hPa WSW 8.5 km/h 14.8 km/h 48 % 0 mm
15:24 5.7 °C -4.4 °C 1012.1 hPa West 6.8 km/h 13 km/h 48 % 0 mm
15:28 5.7 °C -4.4 °C 1012.1 hPa West 10.9 km/h 20.4 km/h 48 % 0 mm
15:32 5.7 °C -4.4 °C 1012.1 hPa WSW 7.7 km/h 18.5 km/h 48 % 0 mm
15:34 5.7 °C -4.4 °C 1012.4 hPa WNW 4.2 km/h 16.1 km/h 48 % 0 mm
15:39 5.7 °C -3.9 °C 1012.4 hPa WNW 6.3 km/h 20.4 km/h 50 % 0 mm
15:49 5.7 °C -3.9 °C 1012.4 hPa NW 19.3 km/h 22.2 km/h 50 % 0 mm
15:50 5.7 °C -3.9 °C 1012.4 hPa NW 14.8 km/h 22.2 km/h 50 % 0 mm
15:51 5.7 °C -3.9 °C 1012.4 hPa WNW 11.3 km/h 22.5 km/h 50 % 0 mm
15:56 5.7 °C -3.7 °C 1012.4 hPa NW 13.7 km/h 18.5 km/h 51 % 0 mm
15:58 5.7 °C -3.7 °C 1012.4 hPa NW 9.2 km/h 12.9 km/h 51 % 0 mm
16:03 5.7 °C -3.7 °C 1012.4 hPa North 10.6 km/h 22.2 km/h 51 % 0 mm
16:08 5.7 °C -3.2 °C 1012.8 hPa NE 10.5 km/h 29.6 km/h 53 % 0 mm
16:09 5.7 °C -3.2 °C 1012.8 hPa NW 8.4 km/h 19.3 km/h 53 % 0 mm
16:14 5.6 °C -3.5 °C 1012.8 hPa North 12.2 km/h 29.6 km/h 52 % 0 mm
16:16 5.6 °C -3.3 °C 1013.1 hPa NW 7.9 km/h 16.7 km/h 53 % 0 mm
16:21 5.5 °C -3.8 °C 1013.1 hPa NNW 8.9 km/h 22.2 km/h 51 % 0 mm
16:23 5.5 °C -3.6 °C 1013.1 hPa WSW 9.3 km/h 17.7 km/h 52 % 0 mm
16:26 5.4 °C -4.2 °C 1013.1 hPa NNW 11.3 km/h 20.4 km/h 50 % 0 mm
16:31 5.3 °C -4 °C 1013.1 hPa NNW 12.4 km/h 18.5 km/h 51 % 0 mm
16:33 5.3 °C -4 °C 1013.1 hPa WNW 15 km/h 24.1 km/h 51 % 0 mm
16:37 5.3 °C -4.1 °C 1013.4 hPa WNW 7.9 km/h 18.5 km/h 51 % 0 mm
16:41 5.2 °C -4.1 °C 1013.1 hPa NNW 11.9 km/h 27.8 km/h 51 % 0 mm
16:46 5.2 °C -3.9 °C 1013.4 hPa WNW 5.5 km/h 14.8 km/h 52 % 0 mm
16:50 5.1 °C -3.9 °C 1013.8 hPa NNW 10.5 km/h 14.5 km/h 52 % 0 mm
16:51 5.1 °C -4 °C 1013.4 hPa West 12.4 km/h 29.6 km/h 52 % 0 mm
16:57 5 °C -4.1 °C 1013.8 hPa WNW 10.1 km/h 14.8 km/h 52 % 0 mm
17:02 4.9 °C -4.4 °C 1013.8 hPa WNW 12.4 km/h 16.7 km/h 51 % 0 mm
17:03 4.9 °C -4.4 °C 1013.8 hPa West 8.7 km/h 22.2 km/h 51 % 0 mm
17:08 4.9 °C -3.9 °C 1013.8 hPa West 9.2 km/h 18.5 km/h 53 % 0 mm
17:12 4.8 °C -3.9 °C 1013.8 hPa WNW 12.7 km/h 18.5 km/h 53 % 0 mm
17:17 4.8 °C -3.7 °C 1014.1 hPa NW 4.3 km/h 14.8 km/h 54 % 0 mm
17:19 4.8 °C -3.7 °C 1014.1 hPa WNW 6.6 km/h 13 km/h 54 % 0 mm
17:20 4.8 °C -3.5 °C 1014.1 hPa NNW 4.3 km/h 9.3 km/h 55 % 0 mm
17:25 4.8 °C -3.8 °C 1014.1 hPa NW 8 km/h 19.3 km/h 54 % 0 mm
17:27 4.7 °C -4.1 °C 1014.1 hPa NW 9 km/h 18.5 km/h 53 % 0 mm
17:32 4.7 °C -4.1 °C 1014.1 hPa NNW 7.7 km/h 16.7 km/h 53 % 0 mm
17:36 4.7 °C -4.4 °C 1014.4 hPa NW 7.7 km/h 14.8 km/h 52 % 0 mm
17:39 4.6 °C -4.2 °C 1014.1 hPa WNW 6.6 km/h 13 km/h 53 % 0 mm
17:43 4.6 °C -4.2 °C 1014.4 hPa NW 6.1 km/h 11.1 km/h 53 % 0 mm
17:47 4.6 °C -3.9 °C 1014.4 hPa NNW 8.9 km/h 18.5 km/h 54 % 0 mm
17:52 4.6 °C -3.9 °C 1014.8 hPa NNW 10.9 km/h 18.5 km/h 54 % 0 mm
17:57 4.5 °C -4 °C 1014.8 hPa West 6.9 km/h 11.1 km/h 54 % 0 mm
18:02 4.5 °C -4.3 °C 1014.8 hPa NW 9.2 km/h 18.5 km/h 53 % 0 mm
18:07 4.4 °C -4.3 °C 1014.8 hPa WNW 12.9 km/h 22.2 km/h 53 % 0 mm
18:12 4.4 °C -4.4 °C 1014.8 hPa North 6.1 km/h 19.3 km/h 53 % 0 mm
18:13 4.4 °C -4.4 °C 1014.8 hPa West 8.2 km/h 18.5 km/h 53 % 0 mm
18:17 4.3 °C -4.2 °C 1014.8 hPa West 10.3 km/h 22.2 km/h 54 % 0 mm
18:20 4.3 °C -4.2 °C 1014.8 hPa WNW 8 km/h 24.1 km/h 54 % 0 mm
18:26 4.3 °C -4.4 °C 1015.1 hPa NW 9.7 km/h 24.1 km/h 53 % 0 mm
18:28 4.2 °C -4.3 °C 1015.1 hPa WSW 8.2 km/h 14.8 km/h 54 % 0 mm
18:33 4.2 °C -4.1 °C 1015.1 hPa West 8.4 km/h 16.7 km/h 55 % 0 mm
18:34 4.2 °C -3.8 °C 1015.1 hPa NW 5.8 km/h 14.8 km/h 56 % 0 mm
18:41 4.1 °C -4.1 °C 1015.1 hPa WNW 9.2 km/h 22.5 km/h 55 % 0 mm
18:48 4 °C -4.2 °C 1015.5 hPa NW 13.5 km/h 18.5 km/h 55 % 0 mm
18:49 3.9 °C -4.3 °C 1015.5 hPa NNW 9 km/h 16.1 km/h 55 % 0 mm
18:54 3.9 °C -4.3 °C 1015.5 hPa NNW 5.8 km/h 18.5 km/h 55 % 0 mm
18:59 3.9 °C -4.1 °C 1015.5 hPa WNW 7.4 km/h 13 km/h 56 % 0 mm
19:02 3.8 °C -4.2 °C 1015.1 hPa NNW 4.8 km/h 13 km/h 56 % 0 mm
19:07 3.8 °C -3.9 °C 1015.5 hPa NW 8.5 km/h 18.5 km/h 57 % 0 mm
19:10 3.8 °C -4.2 °C 1015.5 hPa WNW 12.6 km/h 24.1 km/h 56 % 0 mm
19:15 3.7 °C -4 °C 1015.5 hPa NNW 11.6 km/h 16.7 km/h 57 % 0 mm
19:20 3.7 °C -4.3 °C 1015.8 hPa NW 4.2 km/h 6.4 km/h 56 % 0 mm
19:25 3.7 °C -4.1 °C 1015.8 hPa NW 4.2 km/h 18.5 km/h 57 % 0 mm
19:26 3.6 °C -4.1 °C 1015.8 hPa North 8.7 km/h 20.4 km/h 57 % 0 mm
19:31 3.6 °C -3.9 °C 1015.8 hPa NW 9.7 km/h 24.1 km/h 58 % 0 mm
19:36 3.5 °C -4.4 °C 1015.8 hPa NW 8.4 km/h 25.9 km/h 56 % 0 mm
19:40 3.5 °C -4 °C 1015.8 hPa NNW 8.7 km/h 16.7 km/h 58 % 0 mm
19:41 3.5 °C -4 °C 1015.8 hPa NNW 7.6 km/h 16.7 km/h 58 % 0 mm
19:46 3.4 °C -4.5 °C 1015.8 hPa WNW 15 km/h 20.4 km/h 56 % 0 mm
19:49 3.4 °C -4.5 °C 1015.8 hPa WNW 8.4 km/h 22.2 km/h 56 % 0 mm
19:50 3.4 °C -4.5 °C 1015.8 hPa NNW 10.3 km/h 18.5 km/h 56 % 0 mm
19:55 3.4 °C -4.3 °C 1015.8 hPa NNW 8.7 km/h 16.7 km/h 57 % 0 mm
20:00 3.4 °C -4.3 °C 1015.8 hPa WNW 9.7 km/h 14.8 km/h 57 % 0 mm
20:05 3.3 °C -3.9 °C 1015.8 hPa NW 6.8 km/h 13 km/h 59 % 0 mm
20:08 3.3 °C -4.2 °C 1015.8 hPa North 5.3 km/h 18.5 km/h 58 % 0 mm
20:11 3.3 °C -4.2 °C 1015.8 hPa NNW 8.5 km/h 18.5 km/h 58 % 0 mm
20:14 3.2 °C -4.5 °C 1015.8 hPa NW 3.7 km/h 18.5 km/h 57 % 0 mm
20:20 3.2 °C -4.1 °C 1015.8 hPa NNW 10.9 km/h 14.5 km/h 59 % 0 mm
20:21 3.2 °C -4.1 °C 1015.8 hPa NW 11.3 km/h 22.5 km/h 59 % 0 mm
20:22 3.2 °C -4.6 °C 1016.1 hPa NW 10.1 km/h 18.5 km/h 57 % 0 mm
20:26 3.2 °C -4.6 °C 1015.8 hPa NW 5.6 km/h 18.5 km/h 57 % 0 mm
20:31 3.2 °C -4.3 °C 1015.8 hPa NNW 4.7 km/h 13 km/h 58 % 0 mm
20:32 3.2 °C -4.3 °C 1015.8 hPa WNW 5.6 km/h 17.7 km/h 58 % 0 mm
20:37 3.1 °C -4.1 °C 1015.8 hPa NW 9.8 km/h 16.7 km/h 59 % 0 mm
20:38 3.1 °C -4.1 °C 1015.8 hPa West 6.9 km/h 11.3 km/h 59 % 0 mm
20:44 3.1 °C -4.4 °C 1015.8 hPa NW 11.4 km/h 14.8 km/h 58 % 0 mm
20:50 3.1 °C -4.2 °C 1016.1 hPa NNW 11.7 km/h 24.1 km/h 59 % 0 mm
20:55 3.1 °C -4.4 °C 1016.1 hPa NNW 7.4 km/h 18.5 km/h 58 % 0 mm
20:56 3.1 °C -4.2 °C 1016.1 hPa WNW 7.1 km/h 19.3 km/h 59 % 0 mm
21:01 3 °C -4.4 °C 1016.5 hPa WNW 5.5 km/h 16.7 km/h 58 % 0 mm
21:06 3 °C -4.4 °C 1016.5 hPa WNW 12.9 km/h 22.5 km/h 58 % 0 mm
21:07 3 °C -4.4 °C 1016.5 hPa NNW 4.7 km/h 18.5 km/h 58 % 0 mm
21:12 2.9 °C -4.3 °C 1016.1 hPa NW 10.3 km/h 14.8 km/h 59 % 0 mm
21:17 2.9 °C -4.3 °C 1016.1 hPa NNW 8.9 km/h 24.1 km/h 59 % 0 mm
21:22 2.9 °C -4.3 °C 1016.1 hPa WNW 7.6 km/h 13 km/h 59 % 0 mm
21:23 2.9 °C -4.3 °C 1016.1 hPa NNW 7.9 km/h 11.1 km/h 59 % 0 mm
21:28 2.8 °C -4.4 °C 1016.1 hPa WNW 7.4 km/h 16.7 km/h 59 % 0 mm
21:31 2.8 °C -4.4 °C 1016.5 hPa WNW 5.3 km/h 7.4 km/h 59 % 0 mm
21:37 2.8 °C -4.2 °C 1016.5 hPa NW 10 km/h 11.1 km/h 60 % 0 mm
21:42 2.7 °C -4.3 °C 1016.5 hPa NW 4 km/h 8 km/h 60 % 0 mm
21:45 2.7 °C -4.1 °C 1016.5 hPa WNW 8 km/h 16.7 km/h 61 % 0 mm
21:48 2.7 °C -4.6 °C 1016.5 hPa NNW 11.6 km/h 20.4 km/h 59 % 0 mm
21:52 2.7 °C -4.8 °C 1016.5 hPa NW 6.3 km/h 9.3 km/h 58 % 0 mm
21:54 2.7 °C -5 °C 1016.5 hPa NW 9.8 km/h 18.5 km/h 57 % 0 mm
21:59 2.7 °C -4.6 °C 1016.5 hPa NW 8.9 km/h 22.2 km/h 59 % 0 mm
22:02 2.7 °C -4.8 °C 1016.5 hPa NW 6.9 km/h 24.1 km/h 58 % 0 mm
22:07 2.6 °C -5.1 °C 1016.5 hPa NW 11.1 km/h 22.2 km/h 57 % 0 mm
22:08 2.6 °C -5.1 °C 1016.5 hPa NW 5.5 km/h 14.8 km/h 57 % 0 mm
22:13 2.6 °C -5.1 °C 1016.5 hPa NW 10.3 km/h 18.5 km/h 57 % 0 mm
22:18 2.6 °C -4.9 °C 1016.5 hPa North 7.9 km/h 14.8 km/h 58 % 0 mm
22:19 2.6 °C -4.9 °C 1016.5 hPa NW 5.8 km/h 13 km/h 58 % 0 mm
22:21 2.6 °C -4.9 °C 1016.5 hPa NNW 8.9 km/h 13 km/h 58 % 0 mm
22:24 2.6 °C -4.9 °C 1016.5 hPa NW 7.9 km/h 13 km/h 58 % 0 mm
22:28 2.5 °C -4.9 °C 1016.5 hPa NNW 6.1 km/h 14.8 km/h 58 % 0 mm
22:33 2.4 °C -5 °C 1016.5 hPa WNW 5 km/h 14.8 km/h 58 % 0 mm
22:36 2.4 °C -5.1 °C 1016.5 hPa NNW 4.8 km/h 19.3 km/h 58 % 0 mm
22:41 2.3 °C -4.8 °C 1016.5 hPa NNW 8 km/h 14.5 km/h 59 % 0 mm
22:46 2.3 °C -4.9 °C 1016.5 hPa NNW 12.9 km/h 20.4 km/h 59 % 0 mm
22:48 2.3 °C -5.1 °C 1016.5 hPa NNW 9.2 km/h 14.8 km/h 58 % 0 mm
22:52 2.3 °C -4.9 °C 1016.5 hPa North 5.8 km/h 11.1 km/h 59 % 0 mm
22:57 2.3 °C -4.7 °C 1016.5 hPa North 6 km/h 17.7 km/h 60 % 0 mm
23:02 2.2 °C -5.2 °C 1016.5 hPa NW 11.7 km/h 16.7 km/h 58 % 0 mm
23:03 2.2 °C -5.2 °C 1016.5 hPa NNW 7.6 km/h 11.1 km/h 58 % 0 mm
23:08 2.2 °C -5 °C 1016.5 hPa NNW 5.6 km/h 11.1 km/h 59 % 0 mm
23:09 2.2 °C -5 °C 1016.5 hPa NNW 7.2 km/h 11.3 km/h 59 % 0 mm
23:14 2.2 °C -5 °C 1016.8 hPa NNW 7.6 km/h 16.7 km/h 59 % 0 mm
23:16 2.1 °C -5.1 °C 1016.8 hPa NNW 4.7 km/h 11.1 km/h 59 % 0 mm
23:21 2.1 °C -5.1 °C 1016.8 hPa North 4.8 km/h 11.1 km/h 59 % 0 mm
23:26 2.1 °C -4.8 °C 1016.8 hPa NNW 4.3 km/h 14.8 km/h 60 % 0 mm
23:29 2.1 °C -4.8 °C 1016.8 hPa North 3.5 km/h 6.4 km/h 60 % 0 mm
23:34 2.1 °C -5.1 °C 1016.8 hPa West 7.6 km/h 16.7 km/h 59 % 0 mm
23:36 2.1 °C -5.1 °C 1016.8 hPa NW 8 km/h 16.1 km/h 59 % 0 mm
23:40 2 °C -5.4 °C 1016.8 hPa NNW 8 km/h 9.7 km/h 58 % 0 mm
23:45 1.9 °C -5.4 °C 1016.5 hPa NW 8 km/h 14.5 km/h 58 % 0 mm
23:50 1.9 °C -5 °C 1016.5 hPa NW 4.3 km/h 5.6 km/h 60 % 0 mm
23:53 1.9 °C -5.3 °C 1016.5 hPa NW 5.5 km/h 18.5 km/h 59 % 0 mm
23:59 1.8 °C -5.6 °C 1016.5 hPa NW 8.7 km/h 16.7 km/h 58 % 0 mm
Crab Meadow Weather
Compliments of Weather Underground - 3.5 mb

Script developed by  Jim McMurry - jmcmurry@mwt.net Adapted for the template by  Wim van der Kuil - Leuven-Template.eu

Weather Terms: Funnel Cloud - A rotating column of air, extending from a towering cumulus or cumulonimbus cloud, that is not in contact with the ground.